sensor_id;sensor_type;location;lat;lon;timestamp;temperature;humidity
9810;DHT22;4944;52.514;13.192;2022-10-16T00:00:45;15.80;99.90
9810;DHT22;4944;52.514;13.192;2022-10-16T00:03:12;15.90;99.90
9810;DHT22;4944;52.514;13.192;2022-10-16T00:05:40;15.90;99.90
9810;DHT22;4944;52.514;13.192;2022-10-16T00:08:09;15.90;99.90
9810;DHT22;4944;52.514;13.192;2022-10-16T00:10:36;15.90;99.90
9810;DHT22;4944;52.514;13.192;2022-10-16T00:13:03;15.90;99.90
9810;DHT22;4944;52.514;13.192;2022-10-16T00:15:30;15.90;99.90
9810;DHT22;4944;52.514;13.192;2022-10-16T00:17:56;15.90;99.90
9810;DHT22;4944;52.514;13.192;2022-10-16T00:20:23;15.90;99.90
9810;DHT22;4944;52.514;13.192;2022-10-16T00:22:50;15.90;99.90
9810;DHT22;4944;52.514;13.192;2022-10-16T00:25:18;15.90;99.90
9810;DHT22;4944;52.514;13.192;2022-10-16T00:27:45;15.90;99.90
9810;DHT22;4944;52.514;13.192;2022-10-16T00:30:11;15.90;99.90
9810;DHT22;4944;52.514;13.192;2022-10-16T00:32:38;15.90;99.90
9810;DHT22;4944;52.514;13.192;2022-10-16T00:35:05;15.90;99.90
9810;DHT22;4944;52.514;13.192;2022-10-16T00:37:32;15.90;99.90
9810;DHT22;4944;52.514;13.192;2022-10-16T00:39:59;15.90;99.90
9810;DHT22;4944;52.514;13.192;2022-10-16T00:42:27;15.90;99.90
9810;DHT22;4944;52.514;13.192;2022-10-16T00:44:55;15.90;99.90
9810;DHT22;4944;52.514;13.192;2022-10-16T00:47:25;15.90;99.90
9810;DHT22;4944;52.514;13.192;2022-10-16T00:49:57;15.90;99.90
9810;DHT22;4944;52.514;13.192;2022-10-16T00:52:25;15.90;99.90
9810;DHT22;4944;52.514;13.192;2022-10-16T00:54:52;15.90;99.90
9810;DHT22;4944;52.514;13.192;2022-10-16T00:57:20;15.90;99.90
9810;DHT22;4944;52.514;13.192;2022-10-16T00:59:48;15.90;99.90
9810;DHT22;4944;52.514;13.192;2022-10-16T01:02:15;15.80;99.90
9810;DHT22;4944;52.514;13.192;2022-10-16T01:04:46;15.80;99.90
9810;DHT22;4944;52.514;13.192;2022-10-16T01:07:19;15.80;99.90
9810;DHT22;4944;52.514;13.192;2022-10-16T01:09:57;15.80;99.90
9810;DHT22;4944;52.514;13.192;2022-10-16T01:12:33;15.80;99.90
9810;DHT22;4944;52.514;13.192;2022-10-16T01:15:10;15.80;99.90
9810;DHT22;4944;52.514;13.192;2022-10-16T01:17:42;15.80;99.90
9810;DHT22;4944;52.514;13.192;2022-10-16T01:20:14;15.80;99.90
9810;DHT22;4944;52.514;13.192;2022-10-16T01:22:55;15.80;99.90
9810;DHT22;4944;52.514;13.192;2022-10-16T01:25:28;15.80;99.90
9810;DHT22;4944;52.514;13.192;2022-10-16T01:28:00;15.80;99.90
9810;DHT22;4944;52.514;13.192;2022-10-16T01:30:31;15.80;99.90
9810;DHT22;4944;52.514;13.192;2022-10-16T01:33:03;15.80;99.90
9810;DHT22;4944;52.514;13.192;2022-10-16T01:35:36;15.80;99.90
9810;DHT22;4944;52.514;13.192;2022-10-16T01:38:06;15.80;99.90
9810;DHT22;4944;52.514;13.192;2022-10-16T01:40:36;15.90;99.90
9810;DHT22;4944;52.514;13.192;2022-10-16T01:43:08;15.80;99.90
9810;DHT22;4944;52.514;13.192;2022-10-16T01:45:38;15.80;99.90
9810;DHT22;4944;52.514;13.192;2022-10-16T01:48:06;15.80;99.90
9810;DHT22;4944;52.514;13.192;2022-10-16T01:50:38;15.80;99.90
9810;DHT22;4944;52.514;13.192;2022-10-16T01:53:08;15.80;99.90
9810;DHT22;4944;52.514;13.192;2022-10-16T01:55:40;15.80;99.90
9810;DHT22;4944;52.514;13.192;2022-10-16T01:58:13;15.80;99.90
9810;DHT22;4944;52.514;13.192;2022-10-16T02:00:43;15.70;99.90
9810;DHT22;4944;52.514;13.192;2022-10-16T02:03:13;15.80;99.90
9810;DHT22;4944;52.514;13.192;2022-10-16T02:05:44;15.70;99.90
9810;DHT22;4944;52.514;13.192;2022-10-16T02:08:12;15.70;99.90
9810;DHT22;4944;52.514;13.192;2022-10-16T02:10:41;15.70;99.90
9810;DHT22;4944;52.514;13.192;2022-10-16T02:13:11;15.70;99.90
9810;DHT22;4944;52.514;13.192;2022-10-16T02:15:40;15.70;99.90
9810;DHT22;4944;52.514;13.192;2022-10-16T02:18:07;15.70;99.90
9810;DHT22;4944;52.514;13.192;2022-10-16T02:20:42;15.70;99.90
9810;DHT22;4944;52.514;13.192;2022-10-16T02:23:14;15.70;99.90
9810;DHT22;4944;52.514;13.192;2022-10-16T02:25:45;15.70;99.90
9810;DHT22;4944;52.514;13.192;2022-10-16T02:28:16;15.80;99.90
9810;DHT22;4944;52.514;13.192;2022-10-16T02:30:46;15.80;99.90
9810;DHT22;4944;52.514;13.192;2022-10-16T02:33:16;15.70;99.90
9810;DHT22;4944;52.514;13.192;2022-10-16T02:35:44;15.70;99.90
9810;DHT22;4944;52.514;13.192;2022-10-16T02:38:12;15.70;99.90
9810;DHT22;4944;52.514;13.192;2022-10-16T02:40:39;15.70;99.90
9810;DHT22;4944;52.514;13.192;2022-10-16T02:43:06;15.70;99.90
9810;DHT22;4944;52.514;13.192;2022-10-16T02:45:35;15.70;99.90
9810;DHT22;4944;52.514;13.192;2022-10-16T02:48:02;15.70;99.90
9810;DHT22;4944;52.514;13.192;2022-10-16T02:50:29;15.70;99.90
9810;DHT22;4944;52.514;13.192;2022-10-16T02:52:56;15.70;99.90
9810;DHT22;4944;52.514;13.192;2022-10-16T02:55:23;15.70;99.90
9810;DHT22;4944;52.514;13.192;2022-10-16T02:57:50;15.70;99.90
9810;DHT22;4944;52.514;13.192;2022-10-16T03:00:17;15.60;99.90
9810;DHT22;4944;52.514;13.192;2022-10-16T03:02:45;15.60;99.90
9810;DHT22;4944;52.514;13.192;2022-10-16T03:05:12;15.60;99.90
9810;DHT22;4944;52.514;13.192;2022-10-16T03:07:39;15.50;99.90
9810;DHT22;4944;52.514;13.192;2022-10-16T03:10:07;15.50;99.90
9810;DHT22;4944;52.514;13.192;2022-10-16T03:12:34;15.50;99.90
9810;DHT22;4944;52.514;13.192;2022-10-16T03:15:00;15.50;99.90
9810;DHT22;4944;52.514;13.192;2022-10-16T03:17:27;15.50;99.90
9810;DHT22;4944;52.514;13.192;2022-10-16T03:19:55;15.50;99.90
9810;DHT22;4944;52.514;13.192;2022-10-16T03:22:22;15.50;99.90
9810;DHT22;4944;52.514;13.192;2022-10-16T03:24:49;15.50;99.90
9810;DHT22;4944;52.514;13.192;2022-10-16T03:27:15;15.40;99.90
9810;DHT22;4944;52.514;13.192;2022-10-16T03:29:42;15.40;99.90
9810;DHT22;4944;52.514;13.192;2022-10-16T03:32:09;15.40;99.90
9810;DHT22;4944;52.514;13.192;2022-10-16T03:34:36;15.40;99.90
9810;DHT22;4944;52.514;13.192;2022-10-16T03:37:04;15.40;99.90
9810;DHT22;4944;52.514;13.192;2022-10-16T03:39:30;15.40;99.90
9810;DHT22;4944;52.514;13.192;2022-10-16T03:41:57;15.40;99.90
9810;DHT22;4944;52.514;13.192;2022-10-16T03:44:24;15.40;99.90
9810;DHT22;4944;52.514;13.192;2022-10-16T03:46:51;15.40;99.90
9810;DHT22;4944;52.514;13.192;2022-10-16T03:49:17;15.50;99.90
9810;DHT22;4944;52.514;13.192;2022-10-16T03:51:44;15.50;99.90
9810;DHT22;4944;52.514;13.192;2022-10-16T03:54:12;15.50;99.90
9810;DHT22;4944;52.514;13.192;2022-10-16T03:56:39;15.50;99.90
9810;DHT22;4944;52.514;13.192;2022-10-16T03:59:06;15.50;99.90
9810;DHT22;4944;52.514;13.192;2022-10-16T04:01:33;15.50;99.90
9810;DHT22;4944;52.514;13.192;2022-10-16T04:03:59;15.50;99.90
9810;DHT22;4944;52.514;13.192;2022-10-16T04:06:26;15.50;99.90
9810;DHT22;4944;52.514;13.192;2022-10-16T04:08:53;15.50;99.90
9810;DHT22;4944;52.514;13.192;2022-10-16T04:11:21;15.50;99.90
9810;DHT22;4944;52.514;13.192;2022-10-16T04:13:48;15.50;99.90
9810;DHT22;4944;52.514;13.192;2022-10-16T04:16:14;15.50;99.90
9810;DHT22;4944;52.514;13.192;2022-10-16T04:18:41;15.50;99.90
9810;DHT22;4944;52.514;13.192;2022-10-16T04:21:08;15.50;99.90
9810;DHT22;4944;52.514;13.192;2022-10-16T04:23:35;15.50;99.90
9810;DHT22;4944;52.514;13.192;2022-10-16T04:26:01;15.50;99.90
9810;DHT22;4944;52.514;13.192;2022-10-16T04:28:30;15.50;99.90
9810;DHT22;4944;52.514;13.192;2022-10-16T04:30:56;15.50;99.90
9810;DHT22;4944;52.514;13.192;2022-10-16T04:33:23;15.50;99.90
9810;DHT22;4944;52.514;13.192;2022-10-16T04:35:56;15.50;99.90
9810;DHT22;4944;52.514;13.192;2022-10-16T04:38:23;15.50;99.90
9810;DHT22;4944;52.514;13.192;2022-10-16T04:40:50;15.50;99.90
9810;DHT22;4944;52.514;13.192;2022-10-16T04:43:17;15.40;99.90
9810;DHT22;4944;52.514;13.192;2022-10-16T04:45:45;15.40;99.90
9810;DHT22;4944;52.514;13.192;2022-10-16T04:48:12;15.40;99.90
9810;DHT22;4944;52.514;13.192;2022-10-16T04:50:38;15.40;99.90
9810;DHT22;4944;52.514;13.192;2022-10-16T04:53:05;15.40;99.90
9810;DHT22;4944;52.514;13.192;2022-10-16T04:55:32;15.40;99.90
9810;DHT22;4944;52.514;13.192;2022-10-16T04:57:59;15.40;99.90
9810;DHT22;4944;52.514;13.192;2022-10-16T05:00:26;15.40;99.90
9810;DHT22;4944;52.514;13.192;2022-10-16T05:02:54;15.40;99.90
9810;DHT22;4944;52.514;13.192;2022-10-16T05:05:21;15.40;99.90
9810;DHT22;4944;52.514;13.192;2022-10-16T05:07:48;15.40;99.90
9810;DHT22;4944;52.514;13.192;2022-10-16T05:10:15;15.30;99.90
9810;DHT22;4944;52.514;13.192;2022-10-16T05:12:42;15.30;99.90
9810;DHT22;4944;52.514;13.192;2022-10-16T05:15:09;15.40;99.90
9810;DHT22;4944;52.514;13.192;2022-10-16T05:17:36;15.40;99.90
9810;DHT22;4944;52.514;13.192;2022-10-16T05:20:05;15.30;99.90
9810;DHT22;4944;52.514;13.192;2022-10-16T05:22:32;15.40;99.90
9810;DHT22;4944;52.514;13.192;2022-10-16T05:24:59;15.40;99.90
9810;DHT22;4944;52.514;13.192;2022-10-16T05:27:26;15.30;99.90
9810;DHT22;4944;52.514;13.192;2022-10-16T05:29:52;15.30;99.90
9810;DHT22;4944;52.514;13.192;2022-10-16T05:32:19;15.30;99.90
9810;DHT22;4944;52.514;13.192;2022-10-16T05:34:46;15.40;99.90
9810;DHT22;4944;52.514;13.192;2022-10-16T05:37:14;15.40;99.90
9810;DHT22;4944;52.514;13.192;2022-10-16T05:39:41;15.40;99.90
9810;DHT22;4944;52.514;13.192;2022-10-16T05:42:07;15.40;99.90
9810;DHT22;4944;52.514;13.192;2022-10-16T05:44:34;15.40;99.90
9810;DHT22;4944;52.514;13.192;2022-10-16T05:47:01;15.40;99.90
9810;DHT22;4944;52.514;13.192;2022-10-16T05:49:28;15.40;99.90
9810;DHT22;4944;52.514;13.192;2022-10-16T05:51:54;15.40;99.90
9810;DHT22;4944;52.514;13.192;2022-10-16T05:54:22;15.40;99.90
9810;DHT22;4944;52.514;13.192;2022-10-16T05:56:49;15.40;99.90
9810;DHT22;4944;52.514;13.192;2022-10-16T05:59:16;15.40;99.90
9810;DHT22;4944;52.514;13.192;2022-10-16T06:01:43;15.40;99.90
9810;DHT22;4944;52.514;13.192;2022-10-16T06:04:10;15.40;99.90
9810;DHT22;4944;52.514;13.192;2022-10-16T06:06:36;15.40;99.90
9810;DHT22;4944;52.514;13.192;2022-10-16T06:09:04;15.40;99.90
9810;DHT22;4944;52.514;13.192;2022-10-16T06:11:33;15.40;99.90
9810;DHT22;4944;52.514;13.192;2022-10-16T06:14:01;15.40;99.90
9810;DHT22;4944;52.514;13.192;2022-10-16T06:16:32;15.40;99.90
9810;DHT22;4944;52.514;13.192;2022-10-16T06:18:59;15.40;99.90
9810;DHT22;4944;52.514;13.192;2022-10-16T06:21:27;15.40;99.90
9810;DHT22;4944;52.514;13.192;2022-10-16T06:23:54;15.50;99.90
9810;DHT22;4944;52.514;13.192;2022-10-16T06:26:23;15.40;99.90
9810;DHT22;4944;52.514;13.192;2022-10-16T06:28:53;15.50;99.90
9810;DHT22;4944;52.514;13.192;2022-10-16T06:31:20;15.50;99.90
9810;DHT22;4944;52.514;13.192;2022-10-16T06:33:50;15.50;99.90
9810;DHT22;4944;52.514;13.192;2022-10-16T06:36:17;15.50;99.90
9810;DHT22;4944;52.514;13.192;2022-10-16T06:38:44;15.50;99.90
9810;DHT22;4944;52.514;13.192;2022-10-16T06:41:13;15.50;99.90
9810;DHT22;4944;52.514;13.192;2022-10-16T06:43:40;15.50;99.90
9810;DHT22;4944;52.514;13.192;2022-10-16T06:46:11;15.50;99.90
9810;DHT22;4944;52.514;13.192;2022-10-16T06:48:38;15.50;99.90
9810;DHT22;4944;52.514;13.192;2022-10-16T06:51:07;15.50;99.90
9810;DHT22;4944;52.514;13.192;2022-10-16T06:53:36;15.50;99.90
9810;DHT22;4944;52.514;13.192;2022-10-16T06:56:10;15.50;99.90
9810;DHT22;4944;52.514;13.192;2022-10-16T06:58:37;15.50;99.90
9810;DHT22;4944;52.514;13.192;2022-10-16T07:01:04;15.60;99.90
9810;DHT22;4944;52.514;13.192;2022-10-16T07:03:32;15.60;99.90
9810;DHT22;4944;52.514;13.192;2022-10-16T07:06:03;15.60;99.90
9810;DHT22;4944;52.514;13.192;2022-10-16T07:08:34;15.70;99.90
9810;DHT22;4944;52.514;13.192;2022-10-16T07:11:03;15.70;99.90
9810;DHT22;4944;52.514;13.192;2022-10-16T07:13:32;15.70;99.90
9810;DHT22;4944;52.514;13.192;2022-10-16T07:16:04;15.70;99.90
9810;DHT22;4944;52.514;13.192;2022-10-16T07:18:32;15.70;99.90
9810;DHT22;4944;52.514;13.192;2022-10-16T07:21:04;15.70;99.90
9810;DHT22;4944;52.514;13.192;2022-10-16T07:23:31;15.80;99.90
9810;DHT22;4944;52.514;13.192;2022-10-16T07:25:57;15.80;99.90
9810;DHT22;4944;52.514;13.192;2022-10-16T07:28:24;15.80;99.90
9810;DHT22;4944;52.514;13.192;2022-10-16T07:30:51;15.80;99.90
9810;DHT22;4944;52.514;13.192;2022-10-16T07:33:18;15.80;99.90
9810;DHT22;4944;52.514;13.192;2022-10-16T07:35:50;15.80;99.90
9810;DHT22;4944;52.514;13.192;2022-10-16T07:38:17;15.90;99.90
9810;DHT22;4944;52.514;13.192;2022-10-16T07:40:44;15.90;99.90
9810;DHT22;4944;52.514;13.192;2022-10-16T07:43:11;15.90;99.90
9810;DHT22;4944;52.514;13.192;2022-10-16T07:45:45;15.90;99.90
9810;DHT22;4944;52.514;13.192;2022-10-16T07:48:12;15.90;99.90
9810;DHT22;4944;52.514;13.192;2022-10-16T07:50:39;15.90;99.90
9810;DHT22;4944;52.514;13.192;2022-10-16T07:53:08;15.90;99.90
9810;DHT22;4944;52.514;13.192;2022-10-16T07:55:35;15.90;99.90
9810;DHT22;4944;52.514;13.192;2022-10-16T07:58:01;15.90;99.90
9810;DHT22;4944;52.514;13.192;2022-10-16T08:00:28;15.90;99.90
9810;DHT22;4944;52.514;13.192;2022-10-16T08:02:56;15.90;99.90
9810;DHT22;4944;52.514;13.192;2022-10-16T08:05:25;15.90;99.90
9810;DHT22;4944;52.514;13.192;2022-10-16T08:07:52;15.90;99.90
9810;DHT22;4944;52.514;13.192;2022-10-16T08:10:21;15.90;99.90
9810;DHT22;4944;52.514;13.192;2022-10-16T08:12:48;16.00;99.90
9810;DHT22;4944;52.514;13.192;2022-10-16T08:15:15;16.00;99.90
9810;DHT22;4944;52.514;13.192;2022-10-16T08:17:42;16.00;99.90
9810;DHT22;4944;52.514;13.192;2022-10-16T08:20:10;16.10;99.90
9810;DHT22;4944;52.514;13.192;2022-10-16T08:22:37;16.10;99.90
9810;DHT22;4944;52.514;13.192;2022-10-16T08:25:04;16.10;99.90
9810;DHT22;4944;52.514;13.192;2022-10-16T08:27:33;16.10;99.90
9810;DHT22;4944;52.514;13.192;2022-10-16T08:29:59;16.10;99.90
9810;DHT22;4944;52.514;13.192;2022-10-16T08:32:26;16.10;99.90
9810;DHT22;4944;52.514;13.192;2022-10-16T08:34:53;16.10;99.90
9810;DHT22;4944;52.514;13.192;2022-10-16T08:37:20;16.10;99.90
9810;DHT22;4944;52.514;13.192;2022-10-16T08:39:46;16.10;99.90
9810;DHT22;4944;52.514;13.192;2022-10-16T08:42:27;16.10;99.90
9810;DHT22;4944;52.514;13.192;2022-10-16T08:45:09;16.20;99.90
9810;DHT22;4944;52.514;13.192;2022-10-16T08:47:44;16.20;99.90
9810;DHT22;4944;52.514;13.192;2022-10-16T08:50:17;16.30;99.90
9810;DHT22;4944;52.514;13.192;2022-10-16T08:52:45;16.30;99.90
9810;DHT22;4944;52.514;13.192;2022-10-16T08:55:30;16.30;99.90
9810;DHT22;4944;52.514;13.192;2022-10-16T08:57:57;16.30;99.90
9810;DHT22;4944;52.514;13.192;2022-10-16T09:00:26;16.40;99.90
9810;DHT22;4944;52.514;13.192;2022-10-16T09:02:59;16.50;99.90
9810;DHT22;4944;52.514;13.192;2022-10-16T09:05:45;16.60;99.90
9810;DHT22;4944;52.514;13.192;2022-10-16T09:08:19;16.70;99.90
9810;DHT22;4944;52.514;13.192;2022-10-16T09:10:57;16.70;99.90
9810;DHT22;4944;52.514;13.192;2022-10-16T09:13:29;16.90;99.90
9810;DHT22;4944;52.514;13.192;2022-10-16T09:16:03;17.00;99.90
9810;DHT22;4944;52.514;13.192;2022-10-16T09:18:39;17.20;99.90
9810;DHT22;4944;52.514;13.192;2022-10-16T09:21:12;17.20;99.90
9810;DHT22;4944;52.514;13.192;2022-10-16T09:23:40;17.20;99.90
9810;DHT22;4944;52.514;13.192;2022-10-16T09:26:11;17.20;99.90
9810;DHT22;4944;52.514;13.192;2022-10-16T09:28:38;17.30;99.90
9810;DHT22;4944;52.514;13.192;2022-10-16T09:31:13;17.30;99.90
9810;DHT22;4944;52.514;13.192;2022-10-16T09:33:41;17.40;99.90
9810;DHT22;4944;52.514;13.192;2022-10-16T09:36:09;17.40;99.90
9810;DHT22;4944;52.514;13.192;2022-10-16T09:38:37;17.40;99.90
9810;DHT22;4944;52.514;13.192;2022-10-16T09:41:15;17.40;99.90
9810;DHT22;4944;52.514;13.192;2022-10-16T09:43:47;17.40;99.90
9810;DHT22;4944;52.514;13.192;2022-10-16T09:46:25;17.50;99.90
9810;DHT22;4944;52.514;13.192;2022-10-16T09:48:56;17.40;99.90
9810;DHT22;4944;52.514;13.192;2022-10-16T09:51:25;17.50;99.90
9810;DHT22;4944;52.514;13.192;2022-10-16T09:53:55;17.50;99.90
9810;DHT22;4944;52.514;13.192;2022-10-16T09:56:24;17.60;99.90
9810;DHT22;4944;52.514;13.192;2022-10-16T09:58:51;17.70;99.90
9810;DHT22;4944;52.514;13.192;2022-10-16T10:01:19;17.80;99.90
9810;DHT22;4944;52.514;13.192;2022-10-16T10:03:48;18.00;99.90
9810;DHT22;4944;52.514;13.192;2022-10-16T10:06:22;18.10;99.90
9810;DHT22;4944;52.514;13.192;2022-10-16T10:08:55;18.10;99.90
9810;DHT22;4944;52.514;13.192;2022-10-16T10:11:39;18.10;99.90
9810;DHT22;4944;52.514;13.192;2022-10-16T10:14:15;18.10;99.90
9810;DHT22;4944;52.514;13.192;2022-10-16T10:16:43;18.00;99.90
9810;DHT22;4944;52.514;13.192;2022-10-16T10:19:15;18.10;99.90
9810;DHT22;4944;52.514;13.192;2022-10-16T10:21:42;18.20;99.90
9810;DHT22;4944;52.514;13.192;2022-10-16T10:24:11;18.20;99.90
9810;DHT22;4944;52.514;13.192;2022-10-16T10:26:39;18.20;99.90
9810;DHT22;4944;52.514;13.192;2022-10-16T10:29:12;18.10;99.90
9810;DHT22;4944;52.514;13.192;2022-10-16T10:31:48;18.10;99.90
9810;DHT22;4944;52.514;13.192;2022-10-16T10:34:26;18.10;99.90
9810;DHT22;4944;52.514;13.192;2022-10-16T10:37:00;18.10;99.90
9810;DHT22;4944;52.514;13.192;2022-10-16T10:39:34;18.20;99.90
9810;DHT22;4944;52.514;13.192;2022-10-16T10:42:09;18.30;99.90
9810;DHT22;4944;52.514;13.192;2022-10-16T10:45:03;18.40;99.90
9810;DHT22;4944;52.514;13.192;2022-10-16T10:47:46;18.50;99.90
9810;DHT22;4944;52.514;13.192;2022-10-16T10:50:23;18.70;99.90
9810;DHT22;4944;52.514;13.192;2022-10-16T10:52:59;18.90;99.90
9810;DHT22;4944;52.514;13.192;2022-10-16T10:55:37;19.00;99.90
9810;DHT22;4944;52.514;13.192;2022-10-16T10:58:35;19.20;99.90
9810;DHT22;4944;52.514;13.192;2022-10-16T11:01:09;19.40;99.90
9810;DHT22;4944;52.514;13.192;2022-10-16T11:03:54;19.70;99.90
9810;DHT22;4944;52.514;13.192;2022-10-16T11:06:28;19.70;99.90
9810;DHT22;4944;52.514;13.192;2022-10-16T11:09:02;19.60;99.90
9810;DHT22;4944;52.514;13.192;2022-10-16T11:11:38;19.50;99.90
9810;DHT22;4944;52.514;13.192;2022-10-16T11:14:13;19.40;99.90
9810;DHT22;4944;52.514;13.192;2022-10-16T11:16:44;19.40;99.90
9810;DHT22;4944;52.514;13.192;2022-10-16T11:19:14;19.40;99.90
9810;DHT22;4944;52.514;13.192;2022-10-16T11:21:49;19.30;99.90
9810;DHT22;4944;52.514;13.192;2022-10-16T11:24:21;19.20;99.90
9810;DHT22;4944;52.514;13.192;2022-10-16T11:26:50;19.20;99.90
9810;DHT22;4944;52.514;13.192;2022-10-16T11:29:23;19.10;99.90
9810;DHT22;4944;52.514;13.192;2022-10-16T11:31:55;19.10;99.90
9810;DHT22;4944;52.514;13.192;2022-10-16T11:34:27;19.00;99.90
9810;DHT22;4944;52.514;13.192;2022-10-16T11:37:02;19.00;99.90
9810;DHT22;4944;52.514;13.192;2022-10-16T11:39:32;19.00;99.90
9810;DHT22;4944;52.514;13.192;2022-10-16T11:42:03;19.10;99.90
9810;DHT22;4944;52.514;13.192;2022-10-16T11:44:42;19.30;99.90
9810;DHT22;4944;52.514;13.192;2022-10-16T11:47:23;19.50;99.90
9810;DHT22;4944;52.514;13.192;2022-10-16T11:49:55;19.60;99.90
9810;DHT22;4944;52.514;13.192;2022-10-16T11:52:30;19.80;99.90
9810;DHT22;4944;52.514;13.192;2022-10-16T11:55:05;19.90;99.90
9810;DHT22;4944;52.514;13.192;2022-10-16T11:57:35;20.00;99.90
9810;DHT22;4944;52.514;13.192;2022-10-16T12:00:08;20.30;99.90
9810;DHT22;4944;52.514;13.192;2022-10-16T12:02:48;20.30;99.90
9810;DHT22;4944;52.514;13.192;2022-10-16T12:05:24;20.30;99.90
9810;DHT22;4944;52.514;13.192;2022-10-16T12:08:04;20.20;99.90
9810;DHT22;4944;52.514;13.192;2022-10-16T12:10:33;20.30;99.90
9810;DHT22;4944;52.514;13.192;2022-10-16T12:13:03;20.40;99.90
9810;DHT22;4944;52.514;13.192;2022-10-16T12:15:32;20.50;99.90
9810;DHT22;4944;52.514;13.192;2022-10-16T12:17:59;20.70;99.90
9810;DHT22;4944;52.514;13.192;2022-10-16T12:20:29;20.90;99.90
9810;DHT22;4944;52.514;13.192;2022-10-16T12:23:00;21.00;99.90
9810;DHT22;4944;52.514;13.192;2022-10-16T12:25:30;21.00;99.90
9810;DHT22;4944;52.514;13.192;2022-10-16T12:28:00;21.20;99.90
9810;DHT22;4944;52.514;13.192;2022-10-16T12:30:29;21.40;99.90
9810;DHT22;4944;52.514;13.192;2022-10-16T12:32:58;21.40;99.90
9810;DHT22;4944;52.514;13.192;2022-10-16T12:35:28;21.50;99.90
9810;DHT22;4944;52.514;13.192;2022-10-16T12:38:07;21.40;99.90
9810;DHT22;4944;52.514;13.192;2022-10-16T12:40:36;21.40;99.90
9810;DHT22;4944;52.514;13.192;2022-10-16T12:43:25;21.50;99.90
9810;DHT22;4944;52.514;13.192;2022-10-16T12:46:01;21.60;99.90
9810;DHT22;4944;52.514;13.192;2022-10-16T12:48:28;21.60;99.90
9810;DHT22;4944;52.514;13.192;2022-10-16T12:50:55;21.70;99.90
9810;DHT22;4944;52.514;13.192;2022-10-16T12:53:25;21.70;99.90
9810;DHT22;4944;52.514;13.192;2022-10-16T12:56:01;21.70;99.90
9810;DHT22;4944;52.514;13.192;2022-10-16T12:58:52;21.60;99.90
9810;DHT22;4944;52.514;13.192;2022-10-16T13:01:34;21.40;99.90
9810;DHT22;4944;52.514;13.192;2022-10-16T13:07:16;21.10;99.90
9810;DHT22;4944;52.514;13.192;2022-10-16T13:09:55;20.90;99.90
9810;DHT22;4944;52.514;13.192;2022-10-16T13:12:38;20.90;99.90
9810;DHT22;4944;52.514;13.192;2022-10-16T13:15:22;21.00;99.90
9810;DHT22;4944;52.514;13.192;2022-10-16T13:17:59;20.90;99.90
9810;DHT22;4944;52.514;13.192;2022-10-16T13:20:32;20.80;99.90
9810;DHT22;4944;52.514;13.192;2022-10-16T13:23:07;20.90;99.90
9810;DHT22;4944;52.514;13.192;2022-10-16T13:25:49;21.20;99.90
9810;DHT22;4944;52.514;13.192;2022-10-16T13:28:19;21.50;99.90
9810;DHT22;4944;52.514;13.192;2022-10-16T13:30:52;21.60;99.90
9810;DHT22;4944;52.514;13.192;2022-10-16T13:33:24;21.70;99.90
9810;DHT22;4944;52.514;13.192;2022-10-16T13:35:55;21.80;99.90
9810;DHT22;4944;52.514;13.192;2022-10-16T13:38:23;21.90;99.90
9810;DHT22;4944;52.514;13.192;2022-10-16T13:40:54;22.00;99.90
9810;DHT22;4944;52.514;13.192;2022-10-16T13:43:25;22.10;99.90
9810;DHT22;4944;52.514;13.192;2022-10-16T13:45:53;22.20;99.90
9810;DHT22;4944;52.514;13.192;2022-10-16T13:48:20;21.80;99.90
9810;DHT22;4944;52.514;13.192;2022-10-16T13:50:58;21.40;99.90
9810;DHT22;4944;52.514;13.192;2022-10-16T13:53:26;21.30;99.90
9810;DHT22;4944;52.514;13.192;2022-10-16T13:55:54;21.50;99.90
9810;DHT22;4944;52.514;13.192;2022-10-16T13:58:20;21.60;99.90
9810;DHT22;4944;52.514;13.192;2022-10-16T14:00:55;21.80;99.90
9810;DHT22;4944;52.514;13.192;2022-10-16T14:03:23;21.90;99.90
9810;DHT22;4944;52.514;13.192;2022-10-16T14:05:52;22.00;99.90
9810;DHT22;4944;52.514;13.192;2022-10-16T14:08:20;22.20;99.90
9810;DHT22;4944;52.514;13.192;2022-10-16T14:10:49;22.30;99.90
9810;DHT22;4944;52.514;13.192;2022-10-16T14:13:20;22.30;99.90
9810;DHT22;4944;52.514;13.192;2022-10-16T14:15:51;22.30;99.90
9810;DHT22;4944;52.514;13.192;2022-10-16T14:18:22;22.50;99.90
9810;DHT22;4944;52.514;13.192;2022-10-16T14:20:49;22.70;99.90
9810;DHT22;4944;52.514;13.192;2022-10-16T14:23:22;22.70;99.90
9810;DHT22;4944;52.514;13.192;2022-10-16T14:25:49;22.60;99.90
9810;DHT22;4944;52.514;13.192;2022-10-16T14:28:18;22.30;99.90
9810;DHT22;4944;52.514;13.192;2022-10-16T14:30:51;22.40;99.90
9810;DHT22;4944;52.514;13.192;2022-10-16T14:33:22;22.30;99.90
9810;DHT22;4944;52.514;13.192;2022-10-16T14:36:00;22.20;99.90
9810;DHT22;4944;52.514;13.192;2022-10-16T14:38:27;22.40;99.90
9810;DHT22;4944;52.514;13.192;2022-10-16T14:40:57;22.50;99.90
9810;DHT22;4944;52.514;13.192;2022-10-16T14:43:31;22.60;99.90
9810;DHT22;4944;52.514;13.192;2022-10-16T14:45:59;22.60;99.90
9810;DHT22;4944;52.514;13.192;2022-10-16T14:48:27;22.60;99.90
9810;DHT22;4944;52.514;13.192;2022-10-16T14:50:54;22.50;99.90
9810;DHT22;4944;52.514;13.192;2022-10-16T14:53:21;22.40;99.90
9810;DHT22;4944;52.514;13.192;2022-10-16T14:55:48;22.30;99.90
9810;DHT22;4944;52.514;13.192;2022-10-16T14:58:17;22.30;99.90
9810;DHT22;4944;52.514;13.192;2022-10-16T15:00:45;22.40;99.90
9810;DHT22;4944;52.514;13.192;2022-10-16T15:03:12;22.40;99.90
9810;DHT22;4944;52.514;13.192;2022-10-16T15:05:39;22.30;99.90
9810;DHT22;4944;52.514;13.192;2022-10-16T15:08:05;22.20;99.90
9810;DHT22;4944;52.514;13.192;2022-10-16T15:10:37;22.30;99.90
9810;DHT22;4944;52.514;13.192;2022-10-16T15:13:04;22.20;99.90
9810;DHT22;4944;52.514;13.192;2022-10-16T15:15:34;22.10;99.90
9810;DHT22;4944;52.514;13.192;2022-10-16T15:18:03;22.10;99.90
9810;DHT22;4944;52.514;13.192;2022-10-16T15:20:31;21.90;99.90
9810;DHT22;4944;52.514;13.192;2022-10-16T15:22:59;21.70;99.90
9810;DHT22;4944;52.514;13.192;2022-10-16T15:25:33;21.60;99.90
9810;DHT22;4944;52.514;13.192;2022-10-16T15:28:00;21.30;99.90
9810;DHT22;4944;52.514;13.192;2022-10-16T15:30:28;21.20;99.90
9810;DHT22;4944;52.514;13.192;2022-10-16T15:32:55;21.10;99.90
9810;DHT22;4944;52.514;13.192;2022-10-16T15:35:23;20.90;99.90
9810;DHT22;4944;52.514;13.192;2022-10-16T15:37:50;20.70;99.90
9810;DHT22;4944;52.514;13.192;2022-10-16T15:40:19;20.60;99.90
9810;DHT22;4944;52.514;13.192;2022-10-16T15:42:48;20.50;99.90
9810;DHT22;4944;52.514;13.192;2022-10-16T15:45:15;20.40;99.90
9810;DHT22;4944;52.514;13.192;2022-10-16T15:47:43;20.40;99.90
9810;DHT22;4944;52.514;13.192;2022-10-16T15:50:10;20.20;99.90
9810;DHT22;4944;52.514;13.192;2022-10-16T15:52:40;20.10;99.90
9810;DHT22;4944;52.514;13.192;2022-10-16T15:55:07;20.00;99.90
9810;DHT22;4944;52.514;13.192;2022-10-16T15:57:35;19.90;99.90
9810;DHT22;4944;52.514;13.192;2022-10-16T16:00:05;19.80;99.90
9810;DHT22;4944;52.514;13.192;2022-10-16T16:02:33;19.80;99.90
9810;DHT22;4944;52.514;13.192;2022-10-16T16:05:00;19.70;99.90